sensor_id;sensor_type;location;lat;lon;timestamp;P1;durP1;ratioP1;P2;durP2;ratioP2
66095;SDS011;53861;53.422;14.530;2022-08-02T00:01:02;9.07;;;3.30;;
66095;SDS011;53861;53.422;14.530;2022-08-02T00:03:30;8.85;;;2.85;;
66095;SDS011;53861;53.422;14.530;2022-08-02T00:05:58;8.98;;;3.63;;
66095;SDS011;53861;53.422;14.530;2022-08-02T00:08:27;10.50;;;3.10;;
66095;SDS011;53861;53.422;14.530;2022-08-02T00:10:54;7.75;;;3.03;;
66095;SDS011;53861;53.422;14.530;2022-08-02T00:13:22;8.50;;;3.30;;
66095;SDS011;53861;53.422;14.530;2022-08-02T00:15:49;8.07;;;3.03;;
66095;SDS011;53861;53.422;14.530;2022-08-02T00:18:17;8.93;;;3.00;;
66095;SDS011;53861;53.422;14.530;2022-08-02T00:20:45;9.18;;;3.13;;
66095;SDS011;53861;53.422;14.530;2022-08-02T00:23:12;10.05;;;3.35;;
66095;SDS011;53861;53.422;14.530;2022-08-02T00:25:41;12.35;;;3.42;;
66095;SDS011;53861;53.422;14.530;2022-08-02T00:28:09;10.80;;;3.40;;
66095;SDS011;53861;53.422;14.530;2022-08-02T00:30:37;8.48;;;3.38;;
66095;SDS011;53861;53.422;14.530;2022-08-02T00:33:04;8.88;;;3.20;;
66095;SDS011;53861;53.422;14.530;2022-08-02T00:35:33;8.93;;;3.20;;
66095;SDS011;53861;53.422;14.530;2022-08-02T00:38:01;6.07;;;3.10;;
66095;SDS011;53861;53.422;14.530;2022-08-02T00:40:30;10.15;;;3.85;;
66095;SDS011;53861;53.422;14.530;2022-08-02T00:43:09;8.57;;;3.20;;
66095;SDS011;53861;53.422;14.530;2022-08-02T00:45:38;6.70;;;3.13;;
66095;SDS011;53861;53.422;14.530;2022-08-02T00:48:08;7.95;;;3.40;;
66095;SDS011;53861;53.422;14.530;2022-08-02T00:50:42;13.35;;;3.70;;
66095;SDS011;53861;53.422;14.530;2022-08-02T00:53:10;13.43;;;3.80;;
66095;SDS011;53861;53.422;14.530;2022-08-02T00:55:38;9.43;;;3.25;;
66095;SDS011;53861;53.422;14.530;2022-08-02T00:58:06;11.32;;;3.45;;
66095;SDS011;53861;53.422;14.530;2022-08-02T01:00:34;10.80;;;3.15;;
66095;SDS011;53861;53.422;14.530;2022-08-02T01:03:02;11.10;;;3.35;;
66095;SDS011;53861;53.422;14.530;2022-08-02T01:05:29;8.38;;;3.33;;
66095;SDS011;53861;53.422;14.530;2022-08-02T01:07:57;11.52;;;3.85;;
66095;SDS011;53861;53.422;14.530;2022-08-02T01:10:25;8.45;;;3.25;;
66095;SDS011;53861;53.422;14.530;2022-08-02T01:12:52;11.57;;;3.38;;
66095;SDS011;53861;53.422;14.530;2022-08-02T01:15:21;9.60;;;3.20;;
66095;SDS011;53861;53.422;14.530;2022-08-02T01:17:51;11.25;;;3.83;;
66095;SDS011;53861;53.422;14.530;2022-08-02T01:20:34;11.18;;;3.13;;
66095;SDS011;53861;53.422;14.530;2022-08-02T01:23:24;13.60;;;3.42;;
66095;SDS011;53861;53.422;14.530;2022-08-02T01:26:08;9.00;;;3.47;;
66095;SDS011;53861;53.422;14.530;2022-08-02T01:28:57;10.45;;;3.72;;
66095;SDS011;53861;53.422;14.530;2022-08-02T01:31:31;6.43;;;3.28;;
66095;SDS011;53861;53.422;14.530;2022-08-02T01:34:05;6.85;;;3.35;;
66095;SDS011;53861;53.422;14.530;2022-08-02T01:36:39;11.80;;;3.42;;
66095;SDS011;53861;53.422;14.530;2022-08-02T01:39:11;8.10;;;3.37;;
66095;SDS011;53861;53.422;14.530;2022-08-02T01:41:41;9.93;;;3.80;;
66095;SDS011;53861;53.422;14.530;2022-08-02T01:44:17;9.75;;;3.65;;
66095;SDS011;53861;53.422;14.530;2022-08-02T01:46:51;8.88;;;3.58;;
66095;SDS011;53861;53.422;14.530;2022-08-02T01:49:21;8.55;;;3.67;;
66095;SDS011;53861;53.422;14.530;2022-08-02T01:51:53;9.52;;;3.50;;
66095;SDS011;53861;53.422;14.530;2022-08-02T01:54:40;9.35;;;3.30;;
66095;SDS011;53861;53.422;14.530;2022-08-02T01:57:11;8.63;;;3.38;;
66095;SDS011;53861;53.422;14.530;2022-08-02T01:59:43;8.80;;;3.22;;
66095;SDS011;53861;53.422;14.530;2022-08-02T02:02:12;8.05;;;3.47;;
66095;SDS011;53861;53.422;14.530;2022-08-02T02:04:42;9.07;;;3.45;;
66095;SDS011;53861;53.422;14.530;2022-08-02T02:07:12;11.90;;;3.55;;
66095;SDS011;53861;53.422;14.530;2022-08-02T02:09:42;8.57;;;3.53;;
66095;SDS011;53861;53.422;14.530;2022-08-02T02:12:12;7.72;;;3.45;;
66095;SDS011;53861;53.422;14.530;2022-08-02T02:14:44;10.63;;;3.67;;
66095;SDS011;53861;53.422;14.530;2022-08-02T02:17:12;13.85;;;3.35;;
66095;SDS011;53861;53.422;14.530;2022-08-02T02:19:42;11.48;;;3.72;;
66095;SDS011;53861;53.422;14.530;2022-08-02T02:22:11;12.30;;;3.33;;
66095;SDS011;53861;53.422;14.530;2022-08-02T02:24:39;7.63;;;3.28;;
66095;SDS011;53861;53.422;14.530;2022-08-02T02:27:07;7.80;;;3.50;;
66095;SDS011;53861;53.422;14.530;2022-08-02T02:29:38;10.85;;;3.67;;
66095;SDS011;53861;53.422;14.530;2022-08-02T02:32:11;9.38;;;3.85;;
66095;SDS011;53861;53.422;14.530;2022-08-02T02:34:42;7.72;;;3.60;;
66095;SDS011;53861;53.422;14.530;2022-08-02T02:37:13;12.25;;;3.90;;
66095;SDS011;53861;53.422;14.530;2022-08-02T02:39:45;12.32;;;3.70;;
66095;SDS011;53861;53.422;14.530;2022-08-02T02:42:16;10.25;;;3.90;;
66095;SDS011;53861;53.422;14.530;2022-08-02T02:44:45;8.98;;;3.25;;
66095;SDS011;53861;53.422;14.530;2022-08-02T02:47:15;14.90;;;3.78;;
66095;SDS011;53861;53.422;14.530;2022-08-02T02:49:45;9.70;;;3.63;;
66095;SDS011;53861;53.422;14.530;2022-08-02T02:52:14;11.32;;;4.22;;
66095;SDS011;53861;53.422;14.530;2022-08-02T02:54:42;10.70;;;4.30;;
66095;SDS011;53861;53.422;14.530;2022-08-02T02:57:13;9.80;;;3.90;;
66095;SDS011;53861;53.422;14.530;2022-08-02T02:59:43;10.57;;;3.65;;
66095;SDS011;53861;53.422;14.530;2022-08-02T03:02:10;11.77;;;4.10;;
66095;SDS011;53861;53.422;14.530;2022-08-02T03:04:41;12.52;;;3.75;;
66095;SDS011;53861;53.422;14.530;2022-08-02T03:07:10;11.13;;;4.53;;
66095;SDS011;53861;53.422;14.530;2022-08-02T03:09:38;10.50;;;4.05;;
66095;SDS011;53861;53.422;14.530;2022-08-02T03:12:05;13.88;;;5.43;;
66095;SDS011;53861;53.422;14.530;2022-08-02T03:14:39;20.25;;;5.18;;
66095;SDS011;53861;53.422;14.530;2022-08-02T03:17:07;10.93;;;4.80;;
66095;SDS011;53861;53.422;14.530;2022-08-02T03:19:35;16.58;;;5.25;;
66095;SDS011;53861;53.422;14.530;2022-08-02T03:22:03;17.17;;;4.95;;
66095;SDS011;53861;53.422;14.530;2022-08-02T03:24:31;15.38;;;4.82;;
66095;SDS011;53861;53.422;14.530;2022-08-02T03:26:58;14.35;;;4.85;;
66095;SDS011;53861;53.422;14.530;2022-08-02T03:29:26;12.43;;;4.70;;
66095;SDS011;53861;53.422;14.530;2022-08-02T03:31:53;17.05;;;4.60;;
66095;SDS011;53861;53.422;14.530;2022-08-02T03:34:22;17.08;;;4.18;;
66095;SDS011;53861;53.422;14.530;2022-08-02T03:36:51;15.15;;;4.40;;
66095;SDS011;53861;53.422;14.530;2022-08-02T03:39:23;14.63;;;4.28;;
66095;SDS011;53861;53.422;14.530;2022-08-02T03:41:52;14.65;;;4.70;;
66095;SDS011;53861;53.422;14.530;2022-08-02T03:44:21;12.65;;;4.30;;
66095;SDS011;53861;53.422;14.530;2022-08-02T03:46:50;20.65;;;8.18;;
66095;SDS011;53861;53.422;14.530;2022-08-02T03:49:19;24.67;;;6.50;;
66095;SDS011;53861;53.422;14.530;2022-08-02T03:51:46;13.90;;;4.88;;
66095;SDS011;53861;53.422;14.530;2022-08-02T03:54:16;11.82;;;4.70;;
66095;SDS011;53861;53.422;14.530;2022-08-02T03:56:45;13.43;;;5.18;;
66095;SDS011;53861;53.422;14.530;2022-08-02T03:59:13;19.80;;;5.07;;
66095;SDS011;53861;53.422;14.530;2022-08-02T04:01:41;21.40;;;5.20;;
66095;SDS011;53861;53.422;14.530;2022-08-02T04:04:09;18.40;;;5.28;;
66095;SDS011;53861;53.422;14.530;2022-08-02T04:06:36;16.80;;;5.18;;
66095;SDS011;53861;53.422;14.530;2022-08-02T04:09:03;16.45;;;5.53;;
66095;SDS011;53861;53.422;14.530;2022-08-02T04:11:31;12.60;;;4.40;;
66095;SDS011;53861;53.422;14.530;2022-08-02T04:14:00;13.27;;;4.63;;
66095;SDS011;53861;53.422;14.530;2022-08-02T04:16:33;20.08;;;6.47;;
66095;SDS011;53861;53.422;14.530;2022-08-02T04:19:09;14.52;;;4.78;;
66095;SDS011;53861;53.422;14.530;2022-08-02T04:21:42;19.20;;;5.15;;
66095;SDS011;53861;53.422;14.530;2022-08-02T04:24:11;13.85;;;5.22;;
66095;SDS011;53861;53.422;14.530;2022-08-02T04:26:42;12.95;;;5.43;;
66095;SDS011;53861;53.422;14.530;2022-08-02T04:29:11;11.80;;;4.72;;
66095;SDS011;53861;53.422;14.530;2022-08-02T04:31:40;12.30;;;4.63;;
66095;SDS011;53861;53.422;14.530;2022-08-02T04:34:09;13.23;;;4.80;;
66095;SDS011;53861;53.422;14.530;2022-08-02T04:36:37;18.83;;;4.80;;
66095;SDS011;53861;53.422;14.530;2022-08-02T04:39:04;14.45;;;4.60;;
66095;SDS011;53861;53.422;14.530;2022-08-02T04:41:35;13.18;;;4.32;;
66095;SDS011;53861;53.422;14.530;2022-08-02T04:44:04;12.77;;;4.60;;
66095;SDS011;53861;53.422;14.530;2022-08-02T04:46:33;11.15;;;4.65;;
66095;SDS011;53861;53.422;14.530;2022-08-02T04:49:02;10.90;;;4.05;;
66095;SDS011;53861;53.422;14.530;2022-08-02T04:51:33;14.48;;;4.95;;
66095;SDS011;53861;53.422;14.530;2022-08-02T04:54:01;14.48;;;4.18;;
66095;SDS011;53861;53.422;14.530;2022-08-02T04:56:28;68.60;;;16.10;;
66095;SDS011;53861;53.422;14.530;2022-08-02T04:58:56;11.90;;;4.13;;
66095;SDS011;53861;53.422;14.530;2022-08-02T05:01:24;12.30;;;4.22;;
66095;SDS011;53861;53.422;14.530;2022-08-02T05:03:52;15.02;;;4.70;;
66095;SDS011;53861;53.422;14.530;2022-08-02T05:06:20;18.85;;;4.88;;
66095;SDS011;53861;53.422;14.530;2022-08-02T05:08:48;12.48;;;3.72;;
66095;SDS011;53861;53.422;14.530;2022-08-02T05:11:15;15.82;;;4.30;;
66095;SDS011;53861;53.422;14.530;2022-08-02T05:13:43;10.57;;;4.50;;
66095;SDS011;53861;53.422;14.530;2022-08-02T05:16:10;14.15;;;4.03;;
66095;SDS011;53861;53.422;14.530;2022-08-02T05:18:38;16.55;;;4.20;;
66095;SDS011;53861;53.422;14.530;2022-08-02T05:21:07;12.15;;;3.88;;
66095;SDS011;53861;53.422;14.530;2022-08-02T05:23:35;13.55;;;4.00;;
66095;SDS011;53861;53.422;14.530;2022-08-02T05:26:02;13.23;;;4.55;;
66095;SDS011;53861;53.422;14.530;2022-08-02T05:28:30;14.18;;;4.40;;
66095;SDS011;53861;53.422;14.530;2022-08-02T05:30:57;16.50;;;4.78;;
66095;SDS011;53861;53.422;14.530;2022-08-02T05:33:25;12.30;;;4.32;;
66095;SDS011;53861;53.422;14.530;2022-08-02T05:35:53;14.52;;;4.40;;
66095;SDS011;53861;53.422;14.530;2022-08-02T05:38:25;20.70;;;5.90;;
66095;SDS011;53861;53.422;14.530;2022-08-02T05:40:56;15.38;;;4.82;;
66095;SDS011;53861;53.422;14.530;2022-08-02T05:43:25;12.20;;;4.18;;
66095;SDS011;53861;53.422;14.530;2022-08-02T05:45:52;19.50;;;4.68;;
66095;SDS011;53861;53.422;14.530;2022-08-02T05:48:20;15.65;;;4.53;;
66095;SDS011;53861;53.422;14.530;2022-08-02T05:50:48;20.55;;;5.43;;
66095;SDS011;53861;53.422;14.530;2022-08-02T05:53:27;20.30;;;4.97;;
66095;SDS011;53861;53.422;14.530;2022-08-02T05:56:04;15.88;;;4.28;;
66095;SDS011;53861;53.422;14.530;2022-08-02T05:58:42;17.88;;;4.25;;
66095;SDS011;53861;53.422;14.530;2022-08-02T06:01:17;20.02;;;5.20;;
66095;SDS011;53861;53.422;14.530;2022-08-02T06:03:52;18.52;;;4.43;;
66095;SDS011;53861;53.422;14.530;2022-08-02T06:06:24;12.98;;;4.10;;
66095;SDS011;53861;53.422;14.530;2022-08-02T06:08:57;14.05;;;4.00;;
66095;SDS011;53861;53.422;14.530;2022-08-02T06:11:32;13.45;;;3.97;;
66095;SDS011;53861;53.422;14.530;2022-08-02T06:14:03;13.57;;;4.20;;
66095;SDS011;53861;53.422;14.530;2022-08-02T06:16:34;12.00;;;3.50;;
66095;SDS011;53861;53.422;14.530;2022-08-02T06:19:03;16.80;;;3.80;;
66095;SDS011;53861;53.422;14.530;2022-08-02T06:21:32;12.43;;;3.70;;
66095;SDS011;53861;53.422;14.530;2022-08-02T06:24:07;9.82;;;3.50;;
66095;SDS011;53861;53.422;14.530;2022-08-02T06:26:38;16.75;;;3.70;;
66095;SDS011;53861;53.422;14.530;2022-08-02T06:29:07;12.88;;;3.53;;
66095;SDS011;53861;53.422;14.530;2022-08-02T06:31:37;12.80;;;3.15;;
66095;SDS011;53861;53.422;14.530;2022-08-02T06:34:08;10.63;;;3.10;;
66095;SDS011;53861;53.422;14.530;2022-08-02T06:36:37;11.57;;;3.10;;
66095;SDS011;53861;53.422;14.530;2022-08-02T06:39:13;8.35;;;3.05;;
66095;SDS011;53861;53.422;14.530;2022-08-02T06:41:43;14.73;;;2.90;;
66095;SDS011;53861;53.422;14.530;2022-08-02T06:44:16;16.13;;;3.40;;
66095;SDS011;53861;53.422;14.530;2022-08-02T06:46:43;14.13;;;3.00;;
66095;SDS011;53861;53.422;14.530;2022-08-02T06:49:13;7.75;;;2.50;;
66095;SDS011;53861;53.422;14.530;2022-08-02T06:51:40;15.60;;;2.85;;
66095;SDS011;53861;53.422;14.530;2022-08-02T06:54:09;10.32;;;4.50;;
66095;SDS011;53861;53.422;14.530;2022-08-02T06:56:43;13.82;;;2.85;;
66095;SDS011;53861;53.422;14.530;2022-08-02T06:59:11;18.88;;;3.03;;
66095;SDS011;53861;53.422;14.530;2022-08-02T07:01:40;14.55;;;2.42;;
66095;SDS011;53861;53.422;14.530;2022-08-02T07:04:11;7.65;;;2.58;;
66095;SDS011;53861;53.422;14.530;2022-08-02T07:06:41;6.82;;;2.50;;
66095;SDS011;53861;53.422;14.530;2022-08-02T07:09:11;14.93;;;2.90;;
66095;SDS011;53861;53.422;14.530;2022-08-02T07:11:38;14.43;;;2.88;;
66095;SDS011;53861;53.422;14.530;2022-08-02T07:14:06;12.32;;;3.17;;
66095;SDS011;53861;53.422;14.530;2022-08-02T07:16:33;14.40;;;2.65;;
66095;SDS011;53861;53.422;14.530;2022-08-02T07:19:01;12.27;;;2.70;;
66095;SDS011;53861;53.422;14.530;2022-08-02T07:21:28;15.07;;;2.45;;
66095;SDS011;53861;53.422;14.530;2022-08-02T07:23:56;11.95;;;2.30;;
66095;SDS011;53861;53.422;14.530;2022-08-02T07:26:26;7.53;;;2.30;;
66095;SDS011;53861;53.422;14.530;2022-08-02T07:28:53;10.18;;;2.25;;
66095;SDS011;53861;53.422;14.530;2022-08-02T07:31:21;10.55;;;2.38;;
66095;SDS011;53861;53.422;14.530;2022-08-02T07:33:48;11.13;;;2.30;;
66095;SDS011;53861;53.422;14.530;2022-08-02T07:36:16;8.02;;;2.33;;
66095;SDS011;53861;53.422;14.530;2022-08-02T07:38:43;12.70;;;2.78;;
66095;SDS011;53861;53.422;14.530;2022-08-02T07:41:11;12.65;;;2.15;;
66095;SDS011;53861;53.422;14.530;2022-08-02T07:43:40;7.68;;;2.25;;
66095;SDS011;53861;53.422;14.530;2022-08-02T07:46:07;8.73;;;2.10;;
66095;SDS011;53861;53.422;14.530;2022-08-02T07:48:35;10.98;;;2.20;;
66095;SDS011;53861;53.422;14.530;2022-08-02T07:51:02;10.27;;;2.17;;
66095;SDS011;53861;53.422;14.530;2022-08-02T07:53:30;10.40;;;2.22;;
66095;SDS011;53861;53.422;14.530;2022-08-02T07:55:57;15.02;;;2.85;;
66095;SDS011;53861;53.422;14.530;2022-08-02T07:58:25;13.73;;;2.00;;
66095;SDS011;53861;53.422;14.530;2022-08-02T08:00:54;10.30;;;3.60;;
66095;SDS011;53861;53.422;14.530;2022-08-02T08:03:21;10.20;;;2.33;;
66095;SDS011;53861;53.422;14.530;2022-08-02T08:05:49;7.72;;;2.22;;
66095;SDS011;53861;53.422;14.530;2022-08-02T08:08:19;12.50;;;2.30;;
66095;SDS011;53861;53.422;14.530;2022-08-02T08:10:47;14.32;;;2.50;;
66095;SDS011;53861;53.422;14.530;2022-08-02T08:13:14;14.77;;;2.15;;
66095;SDS011;53861;53.422;14.530;2022-08-02T08:15:44;12.35;;;1.95;;
66095;SDS011;53861;53.422;14.530;2022-08-02T08:18:13;12.02;;;2.10;;
66095;SDS011;53861;53.422;14.530;2022-08-02T08:20:40;7.50;;;2.00;;
66095;SDS011;53861;53.422;14.530;2022-08-02T08:23:08;7.82;;;2.13;;
66095;SDS011;53861;53.422;14.530;2022-08-02T08:25:35;7.55;;;2.05;;
66095;SDS011;53861;53.422;14.530;2022-08-02T08:28:03;6.85;;;1.77;;
66095;SDS011;53861;53.422;14.530;2022-08-02T08:30:31;12.02;;;2.00;;
66095;SDS011;53861;53.422;14.530;2022-08-02T08:32:58;9.82;;;2.10;;
66095;SDS011;53861;53.422;14.530;2022-08-02T08:35:29;9.85;;;2.20;;
66095;SDS011;53861;53.422;14.530;2022-08-02T08:37:56;12.20;;;2.90;;
66095;SDS011;53861;53.422;14.530;2022-08-02T08:40:24;7.32;;;2.10;;
66095;SDS011;53861;53.422;14.530;2022-08-02T08:42:54;8.55;;;2.00;;
66095;SDS011;53861;53.422;14.530;2022-08-02T08:45:22;11.68;;;1.88;;
66095;SDS011;53861;53.422;14.530;2022-08-02T08:47:51;9.15;;;2.30;;
66095;SDS011;53861;53.422;14.530;2022-08-02T08:50:23;7.30;;;1.73;;
66095;SDS011;53861;53.422;14.530;2022-08-02T08:52:56;11.13;;;2.70;;
66095;SDS011;53861;53.422;14.530;2022-08-02T08:55:32;9.10;;;1.70;;
66095;SDS011;53861;53.422;14.530;2022-08-02T08:58:01;7.45;;;1.67;;
66095;SDS011;53861;53.422;14.530;2022-08-02T09:00:30;8.77;;;1.80;;
66095;SDS011;53861;53.422;14.530;2022-08-02T09:03:00;8.85;;;1.60;;
66095;SDS011;53861;53.422;14.530;2022-08-02T09:05:29;6.88;;;1.60;;
66095;SDS011;53861;53.422;14.530;2022-08-02T09:07:58;8.50;;;1.73;;
66095;SDS011;53861;53.422;14.530;2022-08-02T09:10:32;7.72;;;1.90;;
66095;SDS011;53861;53.422;14.530;2022-08-02T09:13:05;7.53;;;1.73;;
66095;SDS011;53861;53.422;14.530;2022-08-02T09:15:34;6.85;;;1.60;;
66095;SDS011;53861;53.422;14.530;2022-08-02T09:18:02;6.93;;;1.58;;
66095;SDS011;53861;53.422;14.530;2022-08-02T09:20:31;6.50;;;1.70;;
66095;SDS011;53861;53.422;14.530;2022-08-02T09:23:07;11.77;;;3.90;;
66095;SDS011;53861;53.422;14.530;2022-08-02T09:25:36;4.90;;;1.80;;
66095;SDS011;53861;53.422;14.530;2022-08-02T09:28:04;7.43;;;1.67;;
66095;SDS011;53861;53.422;14.530;2022-08-02T09:30:32;9.10;;;1.65;;
66095;SDS011;53861;53.422;14.530;2022-08-02T09:33:09;6.82;;;1.73;;
66095;SDS011;53861;53.422;14.530;2022-08-02T09:35:36;5.78;;;1.60;;
66095;SDS011;53861;53.422;14.530;2022-08-02T09:38:10;7.22;;;1.70;;
66095;SDS011;53861;53.422;14.530;2022-08-02T09:40:40;7.25;;;1.88;;
66095;SDS011;53861;53.422;14.530;2022-08-02T09:43:09;8.40;;;1.80;;
66095;SDS011;53861;53.422;14.530;2022-08-02T09:45:37;8.02;;;1.95;;
66095;SDS011;53861;53.422;14.530;2022-08-02T09:48:05;7.93;;;1.48;;
66095;SDS011;53861;53.422;14.530;2022-08-02T09:50:33;7.22;;;1.80;;
66095;SDS011;53861;53.422;14.530;2022-08-02T09:53:02;5.18;;;1.50;;
66095;SDS011;53861;53.422;14.530;2022-08-02T09:55:31;6.95;;;1.70;;
66095;SDS011;53861;53.422;14.530;2022-08-02T09:58:14;5.13;;;1.58;;
66095;SDS011;53861;53.422;14.530;2022-08-02T10:00:56;5.38;;;1.50;;
66095;SDS011;53861;53.422;14.530;2022-08-02T10:03:25;7.27;;;1.67;;
66095;SDS011;53861;53.422;14.530;2022-08-02T10:05:53;6.65;;;1.90;;
66095;SDS011;53861;53.422;14.530;2022-08-02T10:08:23;6.60;;;1.75;;
66095;SDS011;53861;53.422;14.530;2022-08-02T10:10:53;7.75;;;1.85;;
66095;SDS011;53861;53.422;14.530;2022-08-02T10:13:27;6.15;;;1.85;;
66095;SDS011;53861;53.422;14.530;2022-08-02T10:15:56;5.80;;;1.42;;
66095;SDS011;53861;53.422;14.530;2022-08-02T10:18:24;11.10;;;1.85;;
66095;SDS011;53861;53.422;14.530;2022-08-02T10:20:51;10.00;;;1.90;;
66095;SDS011;53861;53.422;14.530;2022-08-02T10:23:24;11.93;;;1.80;;
66095;SDS011;53861;53.422;14.530;2022-08-02T10:25:53;8.63;;;1.80;;
66095;SDS011;53861;53.422;14.530;2022-08-02T10:28:25;6.03;;;1.50;;
66095;SDS011;53861;53.422;14.530;2022-08-02T10:30:55;4.60;;;1.60;;
66095;SDS011;53861;53.422;14.530;2022-08-02T10:33:23;3.83;;;1.52;;
66095;SDS011;53861;53.422;14.530;2022-08-02T10:35:53;8.05;;;1.75;;
66095;SDS011;53861;53.422;14.530;2022-08-02T10:38:23;5.60;;;1.67;;
66095;SDS011;53861;53.422;14.530;2022-08-02T10:40:52;7.68;;;1.55;;
66095;SDS011;53861;53.422;14.530;2022-08-02T10:49:03;4.90;;;1.58;;
66095;SDS011;53861;53.422;14.530;2022-08-02T10:57:01;5.35;;;1.67;;
66095;SDS011;53861;53.422;14.530;2022-08-02T10:59:31;6.22;;;1.30;;
66095;SDS011;53861;53.422;14.530;2022-08-02T11:02:02;8.07;;;1.40;;
66095;SDS011;53861;53.422;14.530;2022-08-02T11:04:32;4.75;;;1.70;;
66095;SDS011;53861;53.422;14.530;2022-08-02T11:07:31;4.20;;;1.45;;
66095;SDS011;53861;53.422;14.530;2022-08-02T11:15:51;5.57;;;1.40;;
66095;SDS011;53861;53.422;14.530;2022-08-02T11:18:22;6.88;;;1.40;;
66095;SDS011;53861;53.422;14.530;2022-08-02T11:21:21;8.57;;;1.65;;
66095;SDS011;53861;53.422;14.530;2022-08-02T11:23:50;7.28;;;1.80;;
66095;SDS011;53861;53.422;14.530;2022-08-02T11:29:09;7.47;;;1.65;;
66095;SDS011;53861;53.422;14.530;2022-08-02T11:31:37;7.40;;;1.60;;
66095;SDS011;53861;53.422;14.530;2022-08-02T11:34:06;7.13;;;1.60;;
66095;SDS011;53861;53.422;14.530;2022-08-02T11:36:42;5.72;;;1.70;;
66095;SDS011;53861;53.422;14.530;2022-08-02T11:39:11;4.50;;;1.60;;
66095;SDS011;53861;53.422;14.530;2022-08-02T11:41:40;8.43;;;2.00;;
66095;SDS011;53861;53.422;14.530;2022-08-02T11:44:09;6.70;;;1.73;;
66095;SDS011;53861;53.422;14.530;2022-08-02T11:46:37;5.43;;;1.55;;
66095;SDS011;53861;53.422;14.530;2022-08-02T11:49:17;5.18;;;1.48;;
66095;SDS011;53861;53.422;14.530;2022-08-02T11:51:58;4.60;;;1.60;;
66095;SDS011;53861;53.422;14.530;2022-08-02T11:54:30;3.60;;;1.50;;
66095;SDS011;53861;53.422;14.530;2022-08-02T11:57:12;4.95;;;1.65;;
66095;SDS011;53861;53.422;14.530;2022-08-02T11:59:43;5.68;;;1.50;;
66095;SDS011;53861;53.422;14.530;2022-08-02T12:02:11;7.93;;;1.67;;
66095;SDS011;53861;53.422;14.530;2022-08-02T12:04:39;5.00;;;1.45;;
66095;SDS011;53861;53.422;14.530;2022-08-02T12:07:07;4.82;;;1.70;;
66095;SDS011;53861;53.422;14.530;2022-08-02T12:09:35;4.22;;;1.42;;
66095;SDS011;53861;53.422;14.530;2022-08-02T12:12:03;5.57;;;1.40;;
66095;SDS011;53861;53.422;14.530;2022-08-02T12:14:31;4.78;;;1.60;;
66095;SDS011;53861;53.422;14.530;2022-08-02T12:17:12;5.93;;;1.40;;
66095;SDS011;53861;53.422;14.530;2022-08-02T12:19:57;4.20;;;1.50;;
66095;SDS011;53861;53.422;14.530;2022-08-02T12:22:24;4.70;;;1.70;;
66095;SDS011;53861;53.422;14.530;2022-08-02T12:24:54;5.57;;;1.50;;
66095;SDS011;53861;53.422;14.530;2022-08-02T12:27:26;8.82;;;1.50;;
66095;SDS011;53861;53.422;14.530;2022-08-02T12:32:29;9.73;;;1.85;;
66095;SDS011;53861;53.422;14.530;2022-08-02T12:35:01;3.90;;;1.50;;
66095;SDS011;53861;53.422;14.530;2022-08-02T12:37:34;8.23;;;1.80;;
66095;SDS011;53861;53.422;14.530;2022-08-02T12:40:22;9.20;;;1.80;;
66095;SDS011;53861;53.422;14.530;2022-08-02T12:42:53;7.22;;;1.80;;
66095;SDS011;53861;53.422;14.530;2022-08-02T12:45:23;5.78;;;1.50;;
66095;SDS011;53861;53.422;14.530;2022-08-02T12:47:52;7.75;;;1.52;;
66095;SDS011;53861;53.422;14.530;2022-08-02T12:50:23;7.57;;;1.52;;
66095;SDS011;53861;53.422;14.530;2022-08-02T12:53:07;9.38;;;1.77;;
66095;SDS011;53861;53.422;14.530;2022-08-02T12:55:36;12.98;;;1.73;;
66095;SDS011;53861;53.422;14.530;2022-08-02T12:58:12;12.10;;;1.73;;
66095;SDS011;53861;53.422;14.530;2022-08-02T13:00:40;4.18;;;1.40;;
66095;SDS011;53861;53.422;14.530;2022-08-02T13:03:10;7.75;;;1.50;;
66095;SDS011;53861;53.422;14.530;2022-08-02T13:05:38;7.53;;;1.65;;
66095;SDS011;53861;53.422;14.530;2022-08-02T13:08:06;7.07;;;1.50;;
66095;SDS011;53861;53.422;14.530;2022-08-02T13:10:33;4.00;;;1.75;;
66095;SDS011;53861;53.422;14.530;2022-08-02T13:13:01;6.18;;;1.70;;
66095;SDS011;53861;53.422;14.530;2022-08-02T13:15:29;4.57;;;1.58;;
66095;SDS011;53861;53.422;14.530;2022-08-02T13:17:56;6.53;;;1.42;;
66095;SDS011;53861;53.422;14.530;2022-08-02T13:20:27;6.60;;;1.40;;
66095;SDS011;53861;53.422;14.530;2022-08-02T13:22:55;7.05;;;1.70;;
66095;SDS011;53861;53.422;14.530;2022-08-02T13:25:23;6.25;;;1.50;;
66095;SDS011;53861;53.422;14.530;2022-08-02T13:27:51;3.55;;;1.52;;
66095;SDS011;53861;53.422;14.530;2022-08-02T13:30:19;5.38;;;1.80;;
66095;SDS011;53861;53.422;14.530;2022-08-02T13:32:49;9.20;;;1.70;;
66095;SDS011;53861;53.422;14.530;2022-08-02T13:35:16;4.70;;;1.60;;
66095;SDS011;53861;53.422;14.530;2022-08-02T13:37:47;9.52;;;1.75;;
66095;SDS011;53861;53.422;14.530;2022-08-02T13:40:15;6.05;;;1.30;;
66095;SDS011;53861;53.422;14.530;2022-08-02T13:42:43;7.40;;;1.80;;
66095;SDS011;53861;53.422;14.530;2022-08-02T13:45:11;5.60;;;1.60;;
66095;SDS011;53861;53.422;14.530;2022-08-02T13:47:39;3.83;;;1.58;;
66095;SDS011;53861;53.422;14.530;2022-08-02T13:50:10;8.05;;;1.50;;
66095;SDS011;53861;53.422;14.530;2022-08-02T13:52:46;3.30;;;1.50;;
66095;SDS011;53861;53.422;14.530;2022-08-02T13:55:15;4.63;;;1.40;;
66095;SDS011;53861;53.422;14.530;2022-08-02T13:57:43;4.32;;;1.50;;
66095;SDS011;53861;53.422;14.530;2022-08-02T14:00:11;5.32;;;1.60;;
66095;SDS011;53861;53.422;14.530;2022-08-02T14:02:40;5.05;;;1.40;;
66095;SDS011;53861;53.422;14.530;2022-08-02T14:05:07;4.30;;;1.67;;
66095;SDS011;53861;53.422;14.530;2022-08-02T14:07:35;6.70;;;1.77;;
66095;SDS011;53861;53.422;14.530;2022-08-02T14:10:05;8.18;;;1.50;;
66095;SDS011;53861;53.422;14.530;2022-08-02T14:12:33;4.25;;;1.50;;
66095;SDS011;53861;53.422;14.530;2022-08-02T14:15:04;4.35;;;1.30;;
66095;SDS011;53861;53.422;14.530;2022-08-02T14:17:32;6.00;;;1.60;;
66095;SDS011;53861;53.422;14.530;2022-08-02T14:20:08;5.75;;;1.75;;
66095;SDS011;53861;53.422;14.530;2022-08-02T14:25:10;4.78;;;1.60;;
66095;SDS011;53861;53.422;14.530;2022-08-02T14:27:38;3.38;;;1.50;;
66095;SDS011;53861;53.422;14.530;2022-08-02T14:30:06;5.32;;;1.52;;
66095;SDS011;53861;53.422;14.530;2022-08-02T14:32:35;7.35;;;1.90;;
66095;SDS011;53861;53.422;14.530;2022-08-02T14:35:07;4.60;;;1.70;;
66095;SDS011;53861;53.422;14.530;2022-08-02T14:37:37;3.17;;;1.40;;
66095;SDS011;53861;53.422;14.530;2022-08-02T14:40:06;7.03;;;1.50;;
66095;SDS011;53861;53.422;14.530;2022-08-02T14:42:38;6.35;;;1.60;;
66095;SDS011;53861;53.422;14.530;2022-08-02T14:45:21;3.58;;;1.40;;
66095;SDS011;53861;53.422;14.530;2022-08-02T14:47:54;4.43;;;1.75;;
66095;SDS011;53861;53.422;14.530;2022-08-02T14:50:22;4.38;;;1.50;;
66095;SDS011;53861;53.422;14.530;2022-08-02T14:52:50;6.20;;;1.50;;
66095;SDS011;53861;53.422;14.530;2022-08-02T14:55:17;3.75;;;1.30;;
66095;SDS011;53861;53.422;14.530;2022-08-02T14:57:46;3.28;;;1.50;;
66095;SDS011;53861;53.422;14.530;2022-08-02T15:00:15;4.13;;;1.63;;
66095;SDS011;53861;53.422;14.530;2022-08-02T15:02:43;3.75;;;1.40;;
66095;SDS011;53861;53.422;14.530;2022-08-02T15:05:11;3.63;;;1.70;;
66095;SDS011;53861;53.422;14.530;2022-08-02T15:07:39;6.68;;;1.55;;
66095;SDS011;53861;53.422;14.530;2022-08-02T15:10:07;4.32;;;1.58;;